Time;durP1;ratioP1;P1;durP2;ratioP2;P2;SDS_P1;SDS_P2;PMS_P1;PMS_P2;Temp;Humidity;BMP_temperature;BMP_pressure;BME280_temperature;BME280_humidity;BME280_pressure;Samples;Min_cycle;Max_cycle;Signal;HPM_P1;HPM_P2
2023/08/05 00:02:24;;;;;;;9.07;3.55;;;18.60;99.90;;;;;;5010053;28;20026;-57
2023/08/05 00:05:11;;;;;;;3.92;3.40;;;18.60;99.90;;;;;;5010233;28;20037;-55
2023/08/05 00:07:56;;;;;;;9.05;3.67;;;18.60;99.90;;;;;;5009336;28;20041;-57
2023/08/05 00:10:43;;;;;;;4.78;3.63;;;18.50;99.90;;;;;;5009139;28;20041;-58
2023/08/05 00:13:34;;;;;;;3.92;3.50;;;18.40;99.90;;;;;;5010327;28;20036;-55
2023/08/05 00:16:20;;;;;;;4.80;4.13;;;18.50;99.90;;;;;;5009561;28;20422;-57
2023/08/05 00:19:06;;;;;;;6.13;3.83;;;18.50;99.90;;;;;;5009059;28;20034;-51
2023/08/05 00:21:52;;;;;;;4.90;3.20;;;18.50;99.90;;;;;;5010445;28;20029;-54
2023/08/05 00:24:39;;;;;;;4.60;3.42;;;18.40;99.90;;;;;;5007901;28;20026;-56
2023/08/05 00:27:25;;;;;;;4.60;3.40;;;18.40;99.90;;;;;;4996856;28;20034;-54
2023/08/05 00:30:11;;;;;;;8.43;3.40;;;18.30;99.90;;;;;;4990963;28;20435;-57
2023/08/05 00:32:57;;;;;;;6.13;4.05;;;18.40;99.90;;;;;;4998791;28;20660;-55
2023/08/05 00:35:43;;;;;;;4.68;3.50;;;18.40;99.90;;;;;;5009596;28;20088;-58
2023/08/05 00:38:29;;;;;;;5.22;3.50;;;18.40;99.90;;;;;;5009140;28;20041;-58
2023/08/05 00:41:15;;;;;;;4.05;3.60;;;18.30;99.90;;;;;;5006545;28;20402;-57
2023/08/05 00:44:01;;;;;;;6.13;3.38;;;18.20;99.90;;;;;;5010216;28;20038;-58
2023/08/05 00:46:47;;;;;;;4.93;3.22;;;18.10;99.90;;;;;;5009353;28;20105;-55
2023/08/05 00:49:33;;;;;;;4.70;3.60;;;18.00;99.90;;;;;;5009471;28;20040;-55
2023/08/05 00:52:23;;;;;;;3.95;3.55;;;18.10;99.90;;;;;;5010157;28;20042;-56
2023/08/05 00:55:09;;;;;;;6.30;3.53;;;18.00;99.90;;;;;;5009477;28;20029;-55
2023/08/05 00:57:56;;;;;;;5.85;3.50;;;18.10;99.90;;;;;;5010131;28;20061;-54
2023/08/05 01:00:42;;;;;;;4.63;3.00;;;18.20;99.90;;;;;;5009864;28;20025;-57
2023/08/05 01:03:28;;;;;;;5.45;3.67;;;18.20;99.90;;;;;;5009716;28;20030;-57
2023/08/05 01:06:15;;;;;;;3.58;3.20;;;18.20;99.90;;;;;;5008842;28;20037;-56
2023/08/05 01:09:02;;;;;;;4.07;3.22;;;18.10;99.90;;;;;;4994371;28;20040;-55
2023/08/05 01:11:48;;;;;;;4.20;3.30;;;17.90;99.90;;;;;;5009587;28;20096;-58
2023/08/05 01:14:34;;;;;;;4.43;3.35;;;17.80;99.90;;;;;;5009321;28;20105;-53
2023/08/05 01:17:20;;;;;;;3.88;3.50;;;17.80;99.90;;;;;;5009273;28;20507;-52
2023/08/05 01:20:10;;;;;;;4.68;3.63;;;17.80;99.90;;;;;;5008913;28;20038;-53
2023/08/05 01:23:01;;;;;;;3.90;3.40;;;17.80;99.90;;;;;;5008238;28;20491;-54
2023/08/05 01:25:47;;;;;;;4.50;3.55;;;17.80;99.90;;;;;;5009833;28;20030;-56
2023/08/05 01:28:35;;;;;;;4.43;2.97;;;17.80;99.90;;;;;;5009435;28;20018;-55
2023/08/05 01:31:22;;;;;;;4.10;3.30;;;17.90;99.90;;;;;;4996616;28;20045;-55
2023/08/05 01:34:09;;;;;;;6.78;3.42;;;17.90;99.90;;;;;;4991148;28;20508;-56
2023/08/05 01:36:54;;;;;;;4.55;3.10;;;18.00;99.90;;;;;;4990637;28;20499;-55
2023/08/05 01:39:40;;;;;;;4.38;3.80;;;17.90;99.90;;;;;;5008878;28;20042;-56
2023/08/05 01:42:26;;;;;;;10.65;7.03;;;17.90;99.90;;;;;;5007785;28;20040;-57
2023/08/05 01:45:12;;;;;;;7.05;4.32;;;17.90;99.90;;;;;;4978552;28;20503;-51
2023/08/05 01:47:58;;;;;;;7.90;4.72;;;17.80;99.90;;;;;;4976691;28;20030;-56
2023/08/05 01:50:44;;;;;;;6.18;3.80;;;17.80;99.90;;;;;;4989881;28;20114;-58
2023/08/05 01:53:30;;;;;;;7.50;5.38;;;17.70;99.90;;;;;;4985714;28;20026;-58
2023/08/05 01:56:16;;;;;;;4.53;3.80;;;17.70;99.90;;;;;;4999088;28;20026;-57
2023/08/05 01:59:02;;;;;;;4.57;3.70;;;17.60;99.90;;;;;;4993549;28;20019;-55
2023/08/05 02:01:48;;;;;;;4.63;3.90;;;17.50;99.90;;;;;;5011410;28;20034;-56
2023/08/05 02:04:34;;;;;;;4.93;3.88;;;17.50;99.90;;;;;;5013180;28;20546;-54
2023/08/05 02:07:20;;;;;;;4.80;3.75;;;17.50;99.90;;;;;;5012238;28;20033;-56
2023/08/05 02:10:06;;;;;;;4.45;3.92;;;17.60;99.90;;;;;;5012214;28;20368;-55
2023/08/05 02:12:52;;;;;;;5.25;3.88;;;17.60;99.90;;;;;;4999236;28;20069;-57
2023/08/05 02:15:38;;;;;;;5.43;4.00;;;17.50;99.90;;;;;;4998125;28;20034;-58
2023/08/05 02:18:24;;;;;;;3.85;3.45;;;17.40;99.90;;;;;;5010915;28;20429;-59
2023/08/05 02:21:10;;;;;;;5.03;4.15;;;17.40;99.90;;;;;;5010892;28;20033;-58
2023/08/05 02:23:56;;;;;;;4.47;3.83;;;17.30;99.90;;;;;;5013030;28;20022;-57
2023/08/05 02:26:42;;;;;;;4.43;3.90;;;17.40;99.90;;;;;;5010075;28;20029;-54
2023/08/05 02:29:28;;;;;;;4.80;4.30;;;17.40;99.90;;;;;;5011390;28;20113;-54
2023/08/05 02:32:17;;;;;;;9.10;4.20;;;17.30;99.90;;;;;;5012776;28;20261;-55
2023/08/05 02:35:03;;;;;;;5.35;4.20;;;17.20;99.90;;;;;;5007005;28;20407;-57
2023/08/05 02:37:49;;;;;;;5.10;4.30;;;17.20;99.90;;;;;;5011181;28;20029;-56
2023/08/05 02:40:35;;;;;;;5.20;4.18;;;17.10;99.90;;;;;;5011512;28;20030;-58
2023/08/05 02:43:21;;;;;;;7.20;4.38;;;17.00;99.90;;;;;;5010764;28;20483;-59
2023/08/05 02:46:07;;;;;;;5.22;4.32;;;16.90;99.90;;;;;;5011898;28;20034;-57
2023/08/05 02:48:53;;;;;;;7.25;4.65;;;16.90;99.90;;;;;;5010965;28;20030;-58
2023/08/05 02:51:39;;;;;;;6.00;4.57;;;16.90;99.90;;;;;;5012035;28;20117;-56
2023/08/05 02:54:25;;;;;;;6.47;4.78;;;16.90;99.90;;;;;;5010952;28;20463;-56
2023/08/05 02:57:11;;;;;;;7.55;4.63;;;17.00;99.90;;;;;;5011720;28;20026;-56
2023/08/05 02:59:57;;;;;;;5.70;4.60;;;17.00;99.90;;;;;;4996696;28;20121;-58
2023/08/05 03:02:43;;;;;;;6.60;5.28;;;17.00;99.90;;;;;;5010572;28;20029;-57
2023/08/05 03:05:28;;;;;;;5.88;4.43;;;17.00;99.90;;;;;;5011517;28;20033;-56
2023/08/05 03:08:14;;;;;;;7.15;4.63;;;17.00;99.90;;;;;;5010615;28;20670;-56
2023/08/05 03:11:01;;;;;;;9.27;5.15;;;17.00;99.90;;;;;;5012228;28;20034;-55
2023/08/05 03:13:47;;;;;;;7.32;5.22;;;17.00;99.90;;;;;;5012142;28;20026;-55
2023/08/05 03:16:33;;;;;;;7.95;4.78;;;16.90;99.90;;;;;;5010479;28;20083;-53
2023/08/05 03:19:20;;;;;;;6.60;4.70;;;16.90;99.90;;;;;;5010643;28;20029;-57
2023/08/05 03:22:05;;;;;;;6.82;4.78;;;16.90;99.90;;;;;;5010001;28;20065;-54
2023/08/05 03:24:51;;;;;;;7.57;4.93;;;16.90;99.90;;;;;;5010723;28;20026;-56
2023/08/05 03:27:37;;;;;;;5.70;5.05;;;17.00;99.90;;;;;;5010359;28;20029;-53
2023/08/05 03:30:23;;;;;;;8.40;5.35;;;16.90;99.90;;;;;;5010401;28;20088;-56
2023/08/05 03:33:09;;;;;;;8.25;5.22;;;16.80;99.90;;;;;;5011128;28;20242;-57
2023/08/05 03:35:55;;;;;;;9.10;5.15;;;16.80;99.90;;;;;;5010033;28;20037;-57
2023/08/05 03:38:41;;;;;;;6.30;4.88;;;16.80;99.90;;;;;;5009496;28;20156;-56
2023/08/05 03:41:27;;;;;;;8.23;5.38;;;16.80;99.90;;;;;;5010551;28;20033;-57
2023/08/05 03:44:13;;;;;;;6.03;5.45;;;16.80;99.90;;;;;;5010798;28;20036;-57
2023/08/05 03:46:59;;;;;;;7.25;5.28;;;16.70;99.90;;;;;;5010739;28;20022;-55
2023/08/05 03:49:45;;;;;;;9.20;5.40;;;16.70;99.90;;;;;;4995650;28;20513;-55
2023/08/05 03:52:31;;;;;;;6.00;5.40;;;16.70;99.90;;;;;;5011144;28;20057;-54
2023/08/05 03:55:18;;;;;;;10.88;5.93;;;16.70;99.90;;;;;;5010445;28;20057;-59
2023/08/05 03:58:04;;;;;;;7.38;6.00;;;16.70;99.90;;;;;;5010416;28;20490;-55
2023/08/05 04:00:50;;;;;;;8.95;5.53;;;16.70;99.90;;;;;;5004421;28;20037;-58
2023/08/05 04:03:36;;;;;;;9.10;6.00;;;16.60;99.90;;;;;;5004752;28;20038;-52
2023/08/05 04:06:24;;;;;;;6.65;5.85;;;16.70;99.90;;;;;;5009170;28;20026;-58
2023/08/05 04:09:10;;;;;;;6.68;5.57;;;16.60;99.90;;;;;;5009451;28;20034;-57
2023/08/05 04:11:58;;;;;;;7.30;5.75;;;16.60;99.90;;;;;;5011029;28;20112;-55
2023/08/05 04:14:44;;;;;;;8.35;5.75;;;16.70;99.90;;;;;;5010213;28;20022;-56
2023/08/05 04:17:30;;;;;;;8.85;5.85;;;16.70;99.90;;;;;;5009925;28;20061;-56
2023/08/05 04:20:17;;;;;;;7.25;5.60;;;16.70;99.90;;;;;;5010742;28;20058;-55
2023/08/05 04:23:05;;;;;;;8.35;6.18;;;16.70;99.90;;;;;;5014400;28;20034;-56
2023/08/05 04:25:52;;;;;;;7.47;5.72;;;16.70;99.90;;;;;;5009869;28;20018;-52
2023/08/05 04:28:38;;;;;;;9.40;5.85;;;16.80;99.90;;;;;;5003874;28;20517;-55
2023/08/05 04:31:24;;;;;;;8.38;5.80;;;16.70;99.90;;;;;;4992716;28;20129;-55
2023/08/05 04:34:10;;;;;;;8.68;5.53;;;16.70;99.90;;;;;;5005714;28;20033;-53
2023/08/05 04:36:56;;;;;;;8.23;5.88;;;16.80;99.90;;;;;;4992986;28;20376;-56
2023/08/05 04:39:43;;;;;;;9.20;5.95;;;16.90;99.90;;;;;;5010581;28;20088;-54
2023/08/05 04:42:29;;;;;;;7.50;5.15;;;16.90;99.90;;;;;;5010232;28;20038;-54
2023/08/05 04:45:15;;;;;;;10.63;6.15;;;16.90;99.90;;;;;;5008990;28;20116;-51
2023/08/05 04:48:01;;;;;;;7.38;5.63;;;16.90;99.90;;;;;;5009966;28;20032;-53
2023/08/05 04:50:47;;;;;;;9.20;5.75;;;16.90;99.90;;;;;;5010989;28;20022;-56
2023/08/05 04:53:33;;;;;;;8.65;6.03;;;16.90;99.90;;;;;;5010274;28;20026;-57
2023/08/05 04:56:25;;;;;;;9.98;5.82;;;17.00;99.90;;;;;;5008730;28;20072;-54
2023/08/05 04:59:11;;;;;;;6.82;5.63;;;17.10;99.90;;;;;;5009957;28;20221;-58
2023/08/05 05:01:57;;;;;;;10.18;6.25;;;17.00;99.90;;;;;;5010623;28;20034;-57
2023/08/05 05:04:43;;;;;;;6.75;5.13;;;16.90;99.90;;;;;;5009444;28;20047;-54
2023/08/05 05:07:29;;;;;;;7.90;5.50;;;16.90;99.90;;;;;;5010041;28;20033;-58
2023/08/05 05:10:15;;;;;;;8.95;5.78;;;17.00;99.90;;;;;;5009236;28;20026;-57
2023/08/05 05:13:01;;;;;;;7.28;5.05;;;17.00;99.90;;;;;;5009936;28;20026;-58
2023/08/05 05:15:48;;;;;;;12.40;5.63;;;17.10;99.90;;;;;;4995010;28;20525;-56
2023/08/05 05:18:34;;;;;;;8.23;5.45;;;17.00;99.90;;;;;;5009453;28;20038;-57
2023/08/05 05:21:20;;;;;;;6.22;5.63;;;16.90;99.90;;;;;;5009171;28;20125;-54
2023/08/05 05:24:06;;;;;;;7.45;5.57;;;17.10;99.90;;;;;;5009301;28;20023;-56
2023/08/05 05:26:52;;;;;;;7.60;5.95;;;17.20;99.90;;;;;;5010954;28;20026;-56
2023/08/05 05:29:38;;;;;;;7.03;5.55;;;17.10;99.90;;;;;;5012711;28;20045;-57
2023/08/05 05:32:23;;;;;;;10.65;5.72;;;17.10;99.90;;;;;;5012992;28;20084;-54
2023/08/05 05:35:10;;;;;;;7.55;5.47;;;17.20;99.90;;;;;;5012984;28;20092;-57
2023/08/05 05:37:55;;;;;;;7.22;5.50;;;17.10;99.90;;;;;;5012600;28;20430;-56
2023/08/05 05:40:42;;;;;;;11.60;6.32;;;17.00;99.90;;;;;;5012608;28;20037;-57
2023/08/05 05:43:27;;;;;;;10.50;5.93;;;17.00;99.90;;;;;;5012257;28;20050;-57
2023/08/05 05:46:14;;;;;;;8.63;6.20;;;16.90;99.90;;;;;;5011870;28;20040;-56
2023/08/05 05:49:01;;;;;;;8.70;6.10;;;16.90;99.90;;;;;;4998254;28;20112;-59
2023/08/05 05:51:47;;;;;;;10.43;6.63;;;16.90;99.90;;;;;;5013258;28;20108;-58
2023/08/05 05:54:35;;;;;;;7.63;5.78;;;16.90;99.90;;;;;;5012405;28;20084;-52
2023/08/05 05:57:23;;;;;;;9.85;5.93;;;17.00;99.90;;;;;;5011886;28;20026;-55
2023/08/05 06:00:09;;;;;;;8.95;6.55;;;17.00;99.90;;;;;;5012360;28;20549;-59
2023/08/05 06:02:55;;;;;;;12.73;6.22;;;17.00;99.90;;;;;;5012413;28;20402;-58
2023/08/05 06:05:41;;;;;;;12.13;7.15;;;16.90;99.90;;;;;;5008961;28;20034;-58
2023/08/05 06:08:27;;;;;;;9.90;6.30;;;16.90;99.90;;;;;;4998494;28;20018;-58
2023/08/05 06:11:13;;;;;;;7.72;6.43;;;17.00;99.90;;;;;;5012307;28;20065;-55
2023/08/05 06:13:59;;;;;;;10.27;6.05;;;17.10;99.90;;;;;;5008883;28;20068;-55
2023/08/05 06:16:45;;;;;;;11.95;6.25;;;17.20;99.90;;;;;;5013525;28;20030;-58
2023/08/05 06:19:31;;;;;;;7.93;6.00;;;17.20;99.90;;;;;;5012450;28;20053;-58
2023/08/05 06:22:17;;;;;;;10.93;5.70;;;17.30;99.90;;;;;;5012426;28;20112;-58
2023/08/05 06:25:03;;;;;;;10.60;6.28;;;17.30;99.90;;;;;;5009902;28;20018;-54
2023/08/05 06:27:49;;;;;;;11.77;6.07;;;17.30;99.90;;;;;;5012528;28;20022;-57
2023/08/05 06:30:36;;;;;;;8.25;5.60;;;17.30;99.90;;;;;;4998178;28;20018;-57
2023/08/05 06:33:21;;;;;;;8.45;6.38;;;17.30;99.90;;;;;;5011881;28;20087;-59
2023/08/05 06:36:07;;;;;;;11.25;6.75;;;17.30;99.90;;;;;;5012360;28;20026;-51
2023/08/05 06:38:53;;;;;;;8.25;5.75;;;17.30;99.90;;;;;;5010392;28;20171;-59
2023/08/05 06:41:39;;;;;;;9.52;5.60;;;17.20;99.90;;;;;;5010424;28;20033;-56
2023/08/05 06:44:25;;;;;;;8.38;6.65;;;17.30;99.90;;;;;;5011657;28;20030;-56
2023/08/05 06:47:11;;;;;;;10.60;6.28;;;17.50;99.90;;;;;;5008985;28;20030;-56
2023/08/05 06:49:58;;;;;;;10.85;6.07;;;17.60;99.90;;;;;;5009806;28;20100;-56
2023/08/05 06:52:44;;;;;;;9.75;5.30;;;17.60;99.90;;;;;;5010169;28;20568;-59
2023/08/05 06:55:30;;;;;;;7.43;6.10;;;17.80;99.90;;;;;;5008753;28;20030;-56
2023/08/05 06:58:16;;;;;;;8.50;6.07;;;17.80;99.90;;;;;;5008931;28;20037;-55
2023/08/05 07:01:02;;;;;;;11.02;6.28;;;17.80;99.90;;;;;;5009735;28;20034;-57
2023/08/05 07:03:49;;;;;;;11.18;5.88;;;17.80;99.90;;;;;;5009173;28;20033;-52
2023/08/05 07:06:35;;;;;;;7.43;6.30;;;17.90;99.90;;;;;;5010543;28;20026;-59
2023/08/05 07:09:21;;;;;;;10.15;5.85;;;17.80;99.90;;;;;;5010092;28;20662;-59
2023/08/05 07:12:07;;;;;;;11.82;5.60;;;17.70;99.90;;;;;;4996304;28;20099;-54
2023/08/05 07:14:53;;;;;;;7.22;5.60;;;17.80;99.90;;;;;;4995812;28;20057;-58
2023/08/05 07:17:39;;;;;;;11.57;5.75;;;18.00;99.90;;;;;;5011242;28;20069;-54
2023/08/05 07:20:25;;;;;;;8.40;5.05;;;18.00;99.90;;;;;;5008333;28;20045;-58
2023/08/05 07:23:11;;;;;;;8.82;5.10;;;17.90;99.90;;;;;;5011030;28;20437;-58
2023/08/05 07:26:01;;;;;;;7.82;5.55;;;17.90;99.90;;;;;;5010759;28;20056;-56
2023/08/05 07:28:48;;;;;;;7.40;5.30;;;17.90;99.90;;;;;;5008157;28;20515;-56
2023/08/05 07:31:34;;;;;;;5.07;4.57;;;17.90;99.90;;;;;;5009996;28;20029;-52
2023/08/05 07:34:20;;;;;;;7.63;4.78;;;18.00;99.90;;;;;;5010176;28;20198;-57
2023/08/05 07:37:06;;;;;;;8.20;4.70;;;18.20;99.90;;;;;;5010782;28;20498;-55
2023/08/05 07:39:52;;;;;;;8.48;4.43;;;18.30;99.90;;;;;;4995837;28;20030;-56
2023/08/05 07:42:40;;;;;;;6.97;4.70;;;18.50;99.90;;;;;;5010468;28;20037;-56
2023/08/05 07:45:26;;;;;;;7.45;4.93;;;18.40;99.90;;;;;;5004735;28;20045;-59
2023/08/05 07:48:12;;;;;;;8.18;4.82;;;18.50;99.90;;;;;;5005838;28;20033;-58
2023/08/05 07:50:59;;;;;;;8.57;4.60;;;18.50;99.90;;;;;;5000793;28;20450;-59
2023/08/05 07:53:52;;;;;;;8.63;4.45;;;18.50;99.90;;;;;;4999595;28;20056;-58
2023/08/05 07:56:39;;;;;;;6.28;4.10;;;18.60;99.90;;;;;;4994658;28;20073;-56
2023/08/05 07:59:26;;;;;;;10.13;5.28;;;18.70;99.90;;;;;;5010209;28;20034;-57
2023/08/05 08:02:12;;;;;;;4.85;4.20;;;18.70;99.90;;;;;;5010161;28;20494;-56
2023/08/05 08:05:02;;;;;;;5.32;4.43;;;18.90;99.90;;;;;;4991881;28;20045;-55
2023/08/05 08:07:50;;;;;;;6.70;4.20;;;19.00;99.90;;;;;;5008994;28;20076;-58
2023/08/05 08:10:35;;;;;;;10.85;5.70;;;19.20;99.90;;;;;;5003359;28;20022;-58
2023/08/05 08:13:21;;;;;;;5.93;3.85;;;19.40;99.90;;;;;;5010957;28;20038;-56
2023/08/05 08:16:08;;;;;;;5.72;4.18;;;19.40;99.90;;;;;;5005030;28;20113;-51
2023/08/05 08:18:54;;;;;;;6.88;4.00;;;19.30;99.70;;;;;;5010232;28;20088;-58
2023/08/05 08:21:40;;;;;;;6.47;4.10;;;19.40;99.70;;;;;;5010891;28;20030;-58
2023/08/05 08:24:26;;;;;;;8.05;4.60;;;19.50;99.40;;;;;;4997281;28;20022;-58
2023/08/05 08:27:12;;;;;;;6.95;4.20;;;19.50;99.50;;;;;;5011381;28;20026;-56
2023/08/05 08:29:58;;;;;;;6.00;4.05;;;19.50;99.60;;;;;;4993623;28;20080;-58
2023/08/05 08:32:43;;;;;;;7.00;4.03;;;19.70;99.70;;;;;;4994943;28;20036;-58
2023/08/05 08:35:30;;;;;;;6.18;4.07;;;19.50;99.10;;;;;;5009218;28;20029;-59
2023/08/05 08:38:17;;;;;;;5.30;3.60;;;19.70;98.80;;;;;;5010022;28;20060;-51
2023/08/05 08:41:04;;;;;;;6.75;4.07;;;19.90;98.80;;;;;;5001942;28;20030;-51
2023/08/05 08:43:50;;;;;;;5.72;3.60;;;19.80;98.70;;;;;;5012318;28;20057;-53
2023/08/05 08:46:37;;;;;;;5.88;4.20;;;20.00;98.80;;;;;;5008646;28;20108;-57
2023/08/05 08:49:23;;;;;;;5.97;3.90;;;19.90;98.20;;;;;;5007098;28;20152;-52
2023/08/05 08:52:12;;;;;;;5.95;4.38;;;20.00;98.30;;;;;;5009456;28;20518;-49
2023/08/05 08:54:58;;;;;;;5.80;3.83;;;20.10;98.20;;;;;;5005883;28;20022;-58
2023/08/05 08:57:44;;;;;;;7.53;4.13;;;20.20;97.70;;;;;;5006550;28;20546;-52
2023/08/05 09:00:32;;;;;;;8.38;3.90;;;20.40;97.50;;;;;;5008684;28;20053;-47
2023/08/05 09:03:22;;;;;;;5.50;3.83;;;20.40;97.40;;;;;;4994864;28;20034;-49
2023/08/05 09:06:08;;;;;;;6.68;4.63;;;20.60;97.20;;;;;;4999418;28;20029;-55
2023/08/05 09:08:54;;;;;;;5.05;3.85;;;20.70;97.30;;;;;;5011332;28;20403;-51
2023/08/05 09:11:40;;;;;;;7.72;3.92;;;20.90;96.90;;;;;;5013195;28;20080;-48
2023/08/05 09:14:26;;;;;;;4.85;3.78;;;21.10;97.00;;;;;;5013256;28;20030;-51
2023/08/05 09:17:14;;;;;;;5.65;3.63;;;21.20;96.30;;;;;;5005401;28;20030;-54
2023/08/05 09:20:10;;;;;;;6.32;3.90;;;21.00;95.90;;;;;;5010986;28;20477;-48
2023/08/05 09:22:57;;;;;;;6.28;3.50;;;21.10;96.20;;;;;;5010454;28;20054;-47
2023/08/05 09:25:47;;;;;;;5.88;4.05;;;21.20;96.30;;;;;;5004138;28;20115;-50
2023/08/05 09:28:33;;;;;;;5.95;4.30;;;21.50;96.50;;;;;;4996496;28;20037;-50
2023/08/05 09:31:20;;;;;;;6.95;3.90;;;21.80;95.60;;;;;;5012094;28;20471;-53
2023/08/05 09:34:08;;;;;;;7.10;5.20;;;21.60;95.10;;;;;;4992034;28;20042;-52
2023/08/05 09:36:54;;;;;;;4.97;3.42;;;21.70;94.70;;;;;;4997847;28;20029;-57
2023/08/05 09:39:45;;;;;;;7.72;3.33;;;21.90;94.60;;;;;;5007825;28;20034;-66
2023/08/05 09:42:31;;;;;;;5.20;3.85;;;22.00;94.30;;;;;;5012026;28;20042;-56
2023/08/05 09:45:19;;;;;;;4.72;3.40;;;22.00;95.10;;;;;;5007779;28;20125;-54
2023/08/05 09:48:09;;;;;;;5.70;3.60;;;22.00;94.50;;;;;;5009035;28;20053;-54
2023/08/05 09:50:58;;;;;;;5.40;3.63;;;22.00;94.10;;;;;;5007220;28;20042;-52
2023/08/05 09:53:51;;;;;;;5.63;3.80;;;21.90;94.30;;;;;;5020792;28;20192;-55
2023/08/05 09:56:37;;;;;;;9.48;6.28;;;21.90;94.10;;;;;;5000975;28;20394;-52
2023/08/05 09:59:25;;;;;;;9.27;4.88;;;21.80;94.80;;;;;;4992969;28;20152;-51
2023/08/05 10:02:18;;;;;;;8.65;4.10;;;21.90;94.90;;;;;;5008210;28;20410;-52
2023/08/05 10:05:05;;;;;;;3.83;3.25;;;22.10;95.10;;;;;;5016242;28;20589;-54
2023/08/05 10:07:53;;;;;;;5.10;3.30;;;22.20;94.60;;;;;;5003676;28;20042;-58
2023/08/05 10:10:41;;;;;;;4.20;3.10;;;22.30;93.40;;;;;;4995337;28;20041;-52
2023/08/05 10:13:29;;;;;;;4.15;3.10;;;22.00;94.40;;;;;;5007878;28;20034;-52
2023/08/05 10:16:15;;;;;;;4.03;3.40;;;22.00;93.80;;;;;;4999057;28;20095;-55
2023/08/05 10:19:01;;;;;;;4.78;3.25;;;21.80;94.00;;;;;;5010225;28;20623;-53
2023/08/05 10:21:47;;;;;;;4.50;3.28;;;21.80;94.10;;;;;;5008781;28;20042;-55
2023/08/05 10:25:00;;;;;;;4.43;3.50;;;21.90;94.30;;;;;;5009946;28;20129;-54
2023/08/05 10:27:46;;;;;;;5.28;3.08;;;21.70;94.20;;;;;;5004528;28;20034;-50
2023/08/05 10:30:41;;;;;;;3.90;3.20;;;21.70;94.00;;;;;;5005475;28;20022;-49
2023/08/05 10:33:28;;;;;;;6.60;4.47;;;21.80;94.10;;;;;;5010597;28;20029;-50
2023/08/05 10:36:17;;;;;;;6.18;3.50;;;22.00;93.80;;;;;;5010757;28;20494;-52
2023/08/05 10:39:03;;;;;;;6.55;3.88;;;22.00;93.90;;;;;;5006063;28;20057;-52
2023/08/05 10:41:49;;;;;;;6.07;3.72;;;22.20;93.90;;;;;;5005857;28;20034;-54
2023/08/05 10:44:35;;;;;;;6.35;3.58;;;22.30;93.40;;;;;;5009053;28;20410;-57
2023/08/05 10:47:22;;;;;;;5.85;3.60;;;22.40;93.50;;;;;;5005690;28;20159;-55
2023/08/05 10:50:15;;;;;;;7.82;3.75;;;22.50;93.30;;;;;;4995198;28;20095;-56
2023/08/05 10:53:09;;;;;;;7.45;3.47;;;22.50;93.20;;;;;;5010858;28;20034;-51
2023/08/05 10:55:56;;;;;;;5.93;3.30;;;22.20;92.90;;;;;;4999826;28;20041;-58
2023/08/05 10:58:50;;;;;;;6.25;3.30;;;22.10;93.20;;;;;;5007516;28;20510;-53
2023/08/05 11:01:56;;;;;;;5.20;3.40;;;22.00;93.30;;;;;;5011405;28;20073;-56
2023/08/05 11:04:42;;;;;;;8.38;6.07;;;22.10;93.80;;;;;;5007700;28;20037;-50
2023/08/05 11:07:30;;;;;;;6.75;4.68;;;22.40;93.20;;;;;;5001468;28;20115;-50
2023/08/05 11:10:16;;;;;;;7.25;5.30;;;22.50;93.10;;;;;;5010634;28;20483;-52
2023/08/05 11:13:02;;;;;;;8.50;6.50;;;22.70;93.00;;;;;;5012797;28;20042;-50
2023/08/05 11:16:07;;;;;;;7.20;6.50;;;22.70;92.80;;;;;;4998336;28;20076;-47
2023/08/05 11:18:57;;;;;;;6.57;4.65;;;22.70;92.60;;;;;;5011467;28;20034;-46
2023/08/05 11:21:46;;;;;;;4.55;3.55;;;22.80;92.50;;;;;;5012243;28;20033;-52
2023/08/05 11:24:32;;;;;;;4.32;3.65;;;22.70;92.30;;;;;;5012400;28;20069;-48
2023/08/05 11:27:18;;;;;;;3.90;3.50;;;22.70;92.60;;;;;;4998380;28;20034;-51
2023/08/05 11:30:30;;;;;;;5.00;3.30;;;22.80;92.70;;;;;;5011856;28;20034;-50
2023/08/05 11:33:16;;;;;;;5.57;3.40;;;22.90;91.80;;;;;;5014483;28;20030;-54
2023/08/05 11:36:02;;;;;;;5.13;3.20;;;22.70;91.90;;;;;;5014857;28;20034;-49
2023/08/05 11:38:50;;;;;;;5.28;3.10;;;22.60;92.30;;;;;;5015217;28;20519;-55
2023/08/05 11:41:36;;;;;;;4.45;3.15;;;22.80;92.40;;;;;;5014033;28;20037;-53
2023/08/05 11:44:22;;;;;;;4.57;3.10;;;22.80;92.10;;;;;;5000723;28;20088;-54
2023/08/05 11:47:08;;;;;;;4.70;3.20;;;22.80;92.00;;;;;;5013303;28;20032;-52
2023/08/05 11:49:54;;;;;;;5.47;3.67;;;22.80;92.00;;;;;;5011829;28;20057;-53
2023/08/05 11:52:40;;;;;;;4.03;3.45;;;22.70;92.40;;;;;;5011869;28;20080;-55
2023/08/05 11:55:34;;;;;;;3.80;3.13;;;22.70;92.40;;;;;;5011953;28;20037;-55
2023/08/05 11:58:23;;;;;;;5.07;3.30;;;22.90;92.00;;;;;;5010970;28;20084;-50
2023/08/05 12:01:09;;;;;;;4.10;3.25;;;23.10;91.80;;;;;;5010827;28;20037;-50
2023/08/05 12:03:57;;;;;;;5.50;3.08;;;23.10;91.60;;;;;;5011505;28;20490;-46
2023/08/05 12:06:46;;;;;;;3.75;3.17;;;23.00;91.50;;;;;;5010043;28;20053;-49
2023/08/05 12:09:32;;;;;;;5.95;3.83;;;23.10;91.40;;;;;;4991182;28;20463;-49
2023/08/05 12:12:18;;;;;;;3.60;2.97;;;23.20;91.30;;;;;;4977545;28;20621;-52
2023/08/05 12:15:19;;;;;;;8.98;3.53;;;23.30;90.90;;;;;;4977299;28;20030;-54
2023/08/05 12:18:06;;;;;;;4.82;3.20;;;23.10;91.20;;;;;;4990606;28;20061;-52
2023/08/05 12:20:52;;;;;;;4.75;3.08;;;22.70;91.30;;;;;;4991268;28;20031;-50
2023/08/05 12:23:41;;;;;;;4.07;3.10;;;22.70;91.50;;;;;;4977107;28;20042;-46
2023/08/05 12:26:27;;;;;;;3.88;3.05;;;22.60;91.50;;;;;;4990617;28;20141;-53
2023/08/05 12:29:13;;;;;;;3.90;3.30;;;22.80;91.00;;;;;;4991064;28;20037;-50
2023/08/05 12:31:59;;;;;;;4.38;3.28;;;22.90;91.00;;;;;;4990387;28;20130;-53
2023/08/05 12:34:45;;;;;;;5.18;3.55;;;23.00;90.70;;;;;;4991561;28;20052;-55
2023/08/05 12:37:36;;;;;;;4.25;2.80;;;23.20;90.90;;;;;;4990756;28;20109;-52
2023/08/05 12:40:22;;;;;;;4.35;3.10;;;23.60;90.60;;;;;;4990044;28;20402;-56
2023/08/05 12:43:08;;;;;;;4.13;3.63;;;23.70;90.40;;;;;;4993822;28;20439;-52
2023/08/05 12:45:54;;;;;;;4.68;3.20;;;23.60;90.20;;;;;;4993775;28;20031;-55
2023/08/05 12:48:39;;;;;;;7.35;3.47;;;23.60;90.20;;;;;;5002776;28;20041;-52
2023/08/05 12:51:25;;;;;;;5.18;3.72;;;23.40;90.80;;;;;;4996393;28;20347;-47
2023/08/05 12:54:11;;;;;;;3.40;3.10;;;23.60;90.60;;;;;;4991303;28;20042;-52
2023/08/05 12:56:57;;;;;;;7.53;3.85;;;23.70;90.30;;;;;;4990622;28;20106;-52
2023/08/05 12:59:43;;;;;;;4.10;3.25;;;23.70;90.70;;;;;;4991530;28;20030;-49
2023/08/05 13:02:29;;;;;;;4.85;3.20;;;23.70;90.50;;;;;;4991679;28;20037;-51
2023/08/05 13:05:15;;;;;;;3.60;3.20;;;23.70;90.00;;;;;;4990375;28;20022;-49
2023/08/05 13:08:01;;;;;;;3.97;3.20;;;23.80;89.70;;;;;;4989455;28;20046;-52
2023/08/05 13:10:47;;;;;;;4.38;3.10;;;23.70;90.10;;;;;;4991021;28;20026;-51
2023/08/05 13:13:33;;;;;;;6.68;3.30;;;24.10;89.10;;;;;;4990889;28;20038;-49
2023/08/05 13:16:19;;;;;;;4.28;3.53;;;24.40;87.80;;;;;;4989957;28;20069;-50
2023/08/05 13:19:06;;;;;;;8.27;5.68;;;24.40;88.40;;;;;;4989817;28;20045;-50
2023/08/05 13:21:52;;;;;;;6.00;4.30;;;24.50;87.70;;;;;;4990094;28;20027;-48
2023/08/05 13:24:38;;;;;;;4.97;3.28;;;24.60;88.20;;;;;;4990468;28;20086;-50
2023/08/05 13:27:24;;;;;;;4.50;3.53;;;24.80;87.20;;;;;;4990810;28;20033;-48
2023/08/05 13:30:10;;;;;;;8.15;6.00;;;24.90;88.00;;;;;;4990504;28;20392;-49
2023/08/05 13:32:56;;;;;;;4.53;3.30;;;24.90;87.10;;;;;;4990685;28;20034;-50
2023/08/05 13:35:42;;;;;;;3.95;3.13;;;24.70;86.70;;;;;;4989841;28;20057;-51
2023/08/05 13:38:28;;;;;;;5.00;3.20;;;24.50;86.80;;;;;;4989491;28;20117;-53
2023/08/05 13:41:14;;;;;;;4.15;2.95;;;24.40;87.30;;;;;;4975555;28;20041;-51
2023/08/05 13:44:00;;;;;;;4.97;3.20;;;24.30;87.30;;;;;;4990303;28;20034;-50
2023/08/05 13:46:46;;;;;;;4.45;3.00;;;24.40;87.80;;;;;;4990198;28;20053;-54
2023/08/05 13:49:32;;;;;;;4.57;3.30;;;24.70;87.70;;;;;;4993380;28;20636;-52
2023/08/05 13:52:18;;;;;;;5.47;3.13;;;24.90;86.60;;;;;;4994090;28;20092;-50
2023/08/05 13:55:04;;;;;;;4.82;3.10;;;25.00;86.30;;;;;;4993539;28;20116;-53
2023/08/05 13:57:50;;;;;;;4.88;3.03;;;25.00;86.10;;;;;;4993326;28;20234;-50
2023/08/05 14:00:36;;;;;;;4.43;3.00;;;25.10;86.80;;;;;;4994010;28;20482;-53
2023/08/05 14:03:23;;;;;;;7.90;4.05;;;25.10;86.60;;;;;;4993725;28;20034;-52
2023/08/05 14:06:09;;;;;;;5.70;3.92;;;25.10;86.30;;;;;;4993592;28;20029;-53
2023/08/05 14:08:58;;;;;;;4.53;3.40;;;25.10;86.40;;;;;;4993583;28;20034;-52
2023/08/05 14:11:44;;;;;;;4.28;3.10;;;25.30;86.70;;;;;;4980042;28;20034;-51
2023/08/05 14:14:31;;;;;;;6.70;3.72;;;25.30;86.60;;;;;;4993654;28;20526;-53
2023/08/05 14:17:17;;;;;;;3.92;2.92;;;25.50;85.30;;;;;;4993389;28;20037;-50
2023/08/05 14:20:05;;;;;;;6.88;3.17;;;25.40;84.10;;;;;;4979214;28;20031;-58
2023/08/05 14:22:50;;;;;;;3.28;2.80;;;25.30;83.50;;;;;;4979063;28;20052;-54
2023/08/05 14:25:36;;;;;;;3.63;2.90;;;25.10;84.80;;;;;;4994482;28;20062;-54
2023/08/05 14:28:22;;;;;;;6.38;3.22;;;25.20;85.70;;;;;;4992554;28;20038;-48